MET: Información y Pronóstico Aeronáutico

MET: Información y Pronóstico Aeronáutico

///////////////////////////////////////////////////////////////////////////////////////////////////////////////////////////////////////////////////////////////////////////////////////////////////////////////////////////////////////////////

22 DE FEBRERO 2018

INFORMACION METEOROLOGICA AERONAUTICA (METAR) 18:00 UTC

Aeropuerto AEROPARQUE J. NEWBERY

22 - 18:00 METAR SABE 221800Z 05005KT CAVOK 25/14 Q1016 =

Aeropuerto BAHIA BLANCA

22 - 18:00 METAR SAZB 221800Z 16014KT CAVOK 26/11 Q1018 =

Aeropuerto BARILOCHE

22 - 18:00 METAR SAZS 221800Z 06006KT 9999 OVC041 18/08 Q1019 =

Aeropuerto EL CALAFATE

22 - 18:00 METAR SAWC 221800Z 25007KT CAVOK 19/M00 Q1015 =

Aeropuerto EZEIZA

22 - 18:00 METAR SAEZ 221700Z 23006KT CAVOK 27/11 Q1016 =

Aeropuerto EL PALOMAR

22 - 18:00 METAR SADP 221800Z 16006KT CAVOK 27/12 Q1016 =

Aeropuerto IGUAZU/CATARATAS

22 - 18:00 METAR SARI 221800Z 18005KT 9999 FEW030 28/12 Q1013 =

Aeropuerto JUJUY

22 - 18:00 METAR SASJ 221800Z 050/08KT 9999 SCT025 FEW050CB 27/17 Q1018 =

Aeropuerto MAR DEL PLATA

22 - 18:00 METAR SAZM 221800Z 32006KT 270V020 CAVOK 26/14 Q1015 =

Aeropuerto MENDOZA

22 - 18:00 METAR SAME 221700Z 07007KT 9999 FEW050TCU 30/14 Q1015 =

Aeropuerto CHAPELCO

22 - 18:00 METAR SAZY 221800Z 09004KT 9000 -RA FEW040 OVC050 19/13 Q1016 =

Aeropuerto COMODORO RIVADAVIA

22 - 18:00 METAR SAVC 221800Z 09011KT CAVOK 20/08 Q1020 =

Aeropuerto CORDOBA

22 - 18:00 METAR SACO 221800Z 02007KT 9999 FEW030 31/13 Q1016 =

Aeropuerto NEUQUEN

22 - 18:00 METAR SAZN 221800Z 14009KT CAVOK 24/01 Q1017 =

Aeropuerto POSADAS

22 - 18:00 METAR SARP 221800Z 16011KT 9999 FEW030 29/12 Q1014 =

Aeropuerto RESISTENCIA

22 - 18:00 METAR SARE 221800Z 16004KT 9999 FEW025 30/12 Q1015 =

Aeropuerto RIO GRANDE

22 - 18:00 METAR SAWE 221800Z 27020KT 9999 BKN018 17/06 Q1010 =

Aeropuerto ROSARIO

22 - 18:00 METAR SAAR 221800Z 23003KT 9999 FEW035 29/13 Q1016 =

Aeropuerto SALTA

22 - 18:00 METAR SASA 221800Z 32005KT 9999 FEW020 SCT030 24/15 Q1020 =

Aeropuerto SAN FERNANDO

22 - 18:00 METAR SADF 221800Z 07004KT CAVOK 26/11 Q1016 =

Aeropuerto SANTA ROSA

22 - 18:00 METAR SAZR 221800Z 32008KT CAVOK 32/13 Q1015 =

Aeropuerto TRELEW

22 - 18:00 METAR SAVT 221800Z 11012KT 9999 FEW035 SCT200 21/07 Q1021 =

Aeropuerto TUCUMAN

22 - 18:00 METAR SANT 221800Z 09015KT 9999 FEW040 30/16 Q1015 =

Aeropuerto USHUAIA

22 - 18:00 METAR SAWH 221800Z 23018G24KT 9999 FEW040 12/05 Q1007 =

 

 PRONOSTICO DE AERODROMO (TAF) 17:00 UTC

 

Estación AEROPARQUE J. NEWBERY

22 - 17:00 TAF SABE 221700Z 2218/2318 05010KT CAVOK TX27/2318Z TN19/2310Z BECMG 2222/2224 09010KT BECMG 2203/2205 02010KT =

Estación BAHIA BLANCA

22 - 17:00 TAF SAZB 221700Z 2218/2318 18015KT CAVOK TX28/2219Z TN18/2208Z BECMG 2223/2301 14015KT BKN030 BKN100 PROB30 TEMPO 2300/2304 7000 RA SCT020 OVC050 BECMG 2304/2306 11010KT BKN020 BECMG 2312/2315 14015G25KT BKN030 BKN100 =

Estación BARILOCHE

22 - 17:00 TAF SAZS 221700Z 2218/2318 09010KT 9999 BKN040 OVC100 TX19/2218Z TN07/2309Z BECMG 2219/2221 VRB04KT 7000 SHRA BKN020 FEW045TCU OVC050 BECMG 2303/2305 09010KT 9999 NSW BKN015 BKN100 BECMG 2312/2315 05015KT CAVOK =

Estación EL CALAFATE

22 - 17:00 TAF SAWC 221700Z 2218/2318 VRB05KT 9999 FEW030 SCT090 TX19/2219Z TN10/2311Z =

Estación EZEIZA

22 - 17:00 TAF SAEZ 221700Z 2218/2318 16006KT CAVOK TX30/2318Z TN15/2309Z BECMG 2221/2224 10007KT BECMG 2303/2306 02007KT BECMG 2315/2318 VRB05KT 9999 FEW050 SCT070 =

Estación EL PALOMAR

22 - 17:00 TAF SADP 221700Z 2218/2318 21010KT CAVOK TX30/2318Z TN16/2310Z BECMG 2219/2221 07010KT BECMG 2305/2307 36005KT CAVOK BECMG 2313/2315 07010KT =

Estación IGUAZU/CATARATAS

22 - 17:00 SARI 221700Z 2218/2318 20005KT 9999 FEW030 TX29/2318Z TN18/2309Z PROB30 2309/2312 3000 BR NSC =

Estación JUJUY

22 - 11:00 TAF SASJ 221100Z 2212/2312 32005KT 9999 SCT025 TX28/2218Z TN16/2310Z BECMG 2213/2216 07010KT 9999 SCT025 FEW040CB =

Estación MAR DEL PLATA

22 - 17:00 TAF SAZM 221700Z 2218/2318 35005KT CAVOK TX27/2218Z TN14/2310Z TEMPO 2220/2222 05015KT BECMG 2303/2306 VRB03KT 7000 NSC BECMG 2315/2318 16010KT 7000 RA SCT020 BKN050 =

Estación MENDOZA

22 - 17:00 TAF SAME 221700Z 2218/2318 05005KT 9999 FEW040 FEW050TCU SCT080 TX32/2220Z TN18/2310Z BECMG 2221/2223 14005KT 9999 VCTS SCT040 FEW050CB SCT070 PROB40 TEMPO 2301/2305 14010KT 8000 TSRA BKN030 FEW040CB =

Estación CHAPELCO

22 - 17:00 TAF SAZY 221700Z 2218/2318 VRB04KT 9999 SCT040 BKN100 TX22/2218Z TN08/2310Z BECMG 2218/2220 11015KT 7000 SHRA BKN020 FEW045TCU OVC050 PROB30 TEMPO 2221/2301 3000 +SHRA BECMG 2306/2309 11010KT 9999 NSW BKN010 BKN100 =

Estación COMODORO RIVADAVIA

22 - 17:00 TAF SAVC 221700Z 2218/2318 05015KT CAVOK TX21/2218Z TN14/2311Z BECMG 2302/2304 36010KT =

Estación CORDOBA

22 - 11:00 TAF SACO 221100Z 2212/2312 36005KT CAVOK TX31/2218Z TN14/2310Z BECMG 2214/2217 05010KT 9999 FEW040TCU =

Estación NEUQUEN

22 - 17:00 TAF SAZN 221700Z 2218/2318 13020KT CAVOK TX24/2219Z TN12/2312Z BECMG 2222/2300 BKN040 BKN100 PROB30 2300/2302 7000 SHRA BKN040 FEW050TCU =

Estación POSADAS

22 - 17:00 SARP 221700Z 2218/2318 18010KT 9999 FEW030 TX30/2318Z TN17/2309Z PROB30 2309/2312 3000 BR NSC =

Estación RESISTENCIA

22 - 17:00 SARE 221700Z 2218/2318 20005KT CAVOK TX31/2318Z TN15/2309Z PROB30 2309/2312 3000 BR NSC =

Estación RIO GRANDE

22 - 17:00 TAF SAWE 221700Z 2218/2318 30020G30KT 9999 SCT020 BKN090 TX19/2218Z TN09/2311Z BECMG 2220/2222 32018KT =

Estación ROSARIO

22 - 17:00 TAF SAAR 221700Z 2218/2318 07010KT 9999 SCT035 TX32/2318Z TN15/2309Z BECMG 2221/2223 CAVOK =

Estación SALTA

22 - 11:00 TAF SASA 221100Z 2212/2312 VRB03KT 7000 BR SCT008 TX26/2218Z TN15/2310Z BECMG 2213/2216 07010KT 9999SCT020 FEW030CB =

Estación SAN FERNANDO

22 - 17:00 TAF SADF 221700Z 2218/2318 14010KT CAVOK TX29/2319Z TN19/2309Z BECMG 2219/2221 05010KT BECMG 2222/2224 09010KT 9999 SCT030 SCT100 BECMG 2306/2308 36005KT =

Estación SANTA ROSA

22 - 17:00 TAF SAZR 221700Z 2218/2318 VRB04KT CAVOK TX33/2318Z TN15/2310Z BECMG 2219/2221 05005KT BECMG 2302/2305 09010KT CAVOK =

Estación TRELEW

22 - 17:00 TAF SAVT 221700Z 2218/2318 14010KT CAVOK TX21/2219Z TN14/2311Z BECMG 2219/2221 09010KT BECMG 2302/2304 05010KT =

Estación TUCUMAN

22 - 11:00 TAF SANT 221100Z 2212/2312 36010KT 9999 SCT035 TX30/2218Z TN21/2310Z BECMG 2214/2217 05005KT 9999 SCT035 FEW040CB TEMPO 2222/2301 7000 TSRA BKN030 FEW040CB =

Estación USHUAIA

22 - 17:00 TAF SAWH 221700Z 2218/2318 29015KT 9999 SCT030 BKN090 TX16/2218Z TN07/2311Z BECMG 2302/2304 32018KT =